Time;durP1;ratioP1;P1;durP2;ratioP2;P2;SDS_P1;SDS_P2;PMS_P1;PMS_P2;Temp;Humidity;BMP_temperature;BMP_pressure;BME280_temperature;BME280_humidity;BME280_pressure;Samples;Min_cycle;Max_cycle;Signal;HPM_P1;HPM_P2
2022/03/27 00:00:29;;;;;;;;;39.25;34.75;;;;;15.25;30.28;102229.09;4957929;28;45388;-65
2022/03/27 00:02:54;;;;;;;;;34.75;31.75;;;;;15.19;30.62;102224.72;4957946;28;45503;-65
2022/03/27 00:05:20;;;;;;;;;38.50;33.75;;;;;15.20;30.68;102237.09;4958065;28;45602;-65
2022/03/27 00:07:45;;;;;;;;;38.50;32.00;;;;;15.18;30.78;102233.59;4958039;28;46022;-64
2022/03/27 00:10:11;;;;;;;;;41.50;35.00;;;;;15.14;30.61;102233.63;4957271;28;45394;-64
2022/03/27 00:12:37;;;;;;;;;40.00;33.25;;;;;15.13;30.83;102235.38;4956846;28;45310;-64
2022/03/27 00:15:04;;;;;;;;;43.50;32.50;;;;;15.09;31.08;102228.38;4956562;28;46275;-64
2022/03/27 00:17:32;;;;;;;;;36.75;31.50;;;;;15.06;30.93;102228.41;4958735;28;47050;-64
2022/03/27 00:19:59;;;;;;;;;32.50;30.75;;;;;15.03;31.18;102229.31;4979122;28;45390;-64
2022/03/27 00:22:26;;;;;;;;;39.50;35.25;;;;;15.03;30.89;102233.72;4983924;28;45261;-64
2022/03/27 00:24:51;;;;;;;;;43.50;33.75;;;;;14.99;30.75;102224.91;4983405;27;45361;-64
2022/03/27 00:27:16;;;;;;;;;45.50;34.50;;;;;14.98;30.83;102222.28;4983923;28;45348;-65
2022/03/27 00:29:42;;;;;;;;;40.25;30.75;;;;;14.98;31.17;102236.44;4983461;28;45255;-64
2022/03/27 00:32:07;;;;;;;;;48.00;34.75;;;;;14.96;30.88;102230.25;4983959;28;45322;-64
2022/03/27 00:34:32;;;;;;;;;43.25;34.75;;;;;14.92;31.10;102224.09;4983890;28;45506;-64
2022/03/27 00:36:58;;;;;;;;;47.25;36.25;;;;;14.92;31.02;102229.41;4983721;28;46278;-64
2022/03/27 00:39:23;;;;;;;;;40.75;35.25;;;;;14.89;31.23;102229.44;4982948;28;45257;-64
2022/03/27 00:41:49;;;;;;;;;37.00;33.00;;;;;14.88;31.07;102232.97;4983887;28;45171;-64
2022/03/27 00:44:15;;;;;;;;;48.25;38.25;;;;;14.85;31.63;102225.03;4992028;28;45641;-64
2022/03/27 00:46:41;;;;;;;;;44.25;35.50;;;;;14.85;31.11;102225.03;4963848;28;46234;-64
2022/03/27 00:49:07;;;;;;;;;38.50;34.75;;;;;14.82;31.07;102230.38;4963721;28;45351;-64
2022/03/27 00:51:32;;;;;;;;;38.50;34.25;;;;;14.81;30.92;102222.47;4963890;28;45332;-64
2022/03/27 00:53:58;;;;;;;;;44.00;33.75;;;;;14.78;31.27;102223.38;4963211;28;45326;-65
2022/03/27 00:56:23;;;;;;;;;43.00;36.25;;;;;14.76;31.21;102223.34;4963736;28;45361;-64
2022/03/27 00:58:48;;;;;;;;;46.00;35.75;;;;;14.75;31.34;102228.66;4963661;28;45517;-64
2022/03/27 01:01:47;;;;;;;;;42.50;33.50;;;;;14.72;31.32;102223.41;4964010;28;45412;-64
2022/03/27 01:04:13;;;;;;;;;47.75;35.25;;;;;14.69;31.54;102221.66;4962721;28;46163;-64
2022/03/27 01:06:41;;;;;;;;;47.00;36.25;;;;;14.68;31.31;102221.66;4978663;28;46181;-64
2022/03/27 01:11:56;;;;;;;;;41.75;35.25;;;;;14.60;31.32;102212.00;4963634;28;45327;-64
2022/03/27 01:14:32;;;;;;;;;43.25;36.00;;;;;14.59;31.51;102218.19;4963713;28;45241;-64
2022/03/27 01:17:09;;;;;;;;;42.50;35.00;;;;;14.56;31.64;102210.25;4963355;28;46358;-64
2022/03/27 01:19:40;;;;;;;;;42.75;35.25;;;;;14.55;31.63;102208.50;4975536;28;45343;-65
2022/03/27 01:22:05;;;;;;;;;40.25;34.00;;;;;14.54;31.67;102209.41;4983217;28;45236;-64
2022/03/27 01:24:31;;;;;;;;;46.50;36.00;;;;;14.51;31.71;102209.41;4982621;28;45272;-64
2022/03/27 01:26:56;;;;;;;;;48.50;37.50;;;;;14.49;32.13;102205.00;4982972;28;46467;-64
2022/03/27 01:29:22;;;;;;;;;40.25;34.50;;;;;14.39;32.03;102196.25;4980309;28;45240;-64
2022/03/27 01:31:47;;;;;;;;;49.25;38.25;;;;;14.45;31.79;102204.16;4979785;28;45399;-64
2022/03/27 01:34:14;;;;;;;;;44.25;34.75;;;;;14.42;31.90;102206.84;4964874;28;45391;-64
2022/03/27 01:36:39;;;;;;;;;48.00;39.25;;;;;14.39;32.33;102197.16;4978230;28;47989;-64
2022/03/27 01:39:10;;;;;;;;;47.25;39.00;;;;;14.37;32.28;102195.41;4978973;28;45500;-64
2022/03/27 01:41:37;;;;;;;;;47.00;36.75;;;;;14.34;32.11;102191.03;4978386;28;45422;-64
2022/03/27 01:44:03;;;;;;;;;48.00;36.50;;;;;14.33;32.44;102188.41;4987140;28;45385;-64
2022/03/27 01:46:37;;;;;;;;;46.25;35.50;;;;;14.28;32.30;102181.34;4959858;28;45815;-64
2022/03/27 01:49:05;;;;;;;;;40.75;35.25;;;;;14.27;32.26;102181.38;4959811;28;45285;-65
2022/03/27 01:51:31;;;;;;;;;48.50;37.75;;;;;14.22;32.24;102175.25;4968298;28;45331;-64
2022/03/27 01:53:57;;;;;;;;;49.25;38.25;;;;;14.21;32.23;102184.91;4962934;28;45398;-64
2022/03/27 01:56:23;;;;;;;;;45.75;35.50;;;;;14.20;32.32;102182.28;4959637;28;46381;-64
2022/03/27 01:58:49;;;;;;;;;48.50;38.75;;;;;14.18;32.56;102178.81;4959525;28;45325;-64
2022/03/27 02:01:16;;;;;;;;;47.25;38.25;;;;;14.16;32.58;102180.56;4959891;28;45220;-64
2022/03/27 02:03:42;;;;;;;;;45.50;36.50;;;;;14.12;32.73;102175.31;4959644;28;46473;-64
2022/03/27 02:06:07;;;;;;;;;43.00;36.75;;;;;14.10;32.74;102176.19;4959874;28;45361;-64
2022/03/27 02:08:34;;;;;;;;;44.50;36.00;;;;;14.04;32.74;102170.97;4959355;28;45348;-64
2022/03/27 02:11:00;;;;;;;;;43.50;35.00;;;;;14.07;32.85;102182.34;4974491;28;45514;-64
2022/03/27 02:13:26;;;;;;;;;49.50;39.25;;;;;14.04;32.67;102176.25;4959594;28;45359;-65
2022/03/27 02:15:53;;;;;;;;;47.00;36.75;;;;;14.01;33.13;102177.09;4967835;28;45448;-64
2022/03/27 02:18:19;;;;;;;;;48.25;39.25;;;;;13.97;33.13;102170.09;4965661;28;45297;-64
2022/03/27 02:20:44;;;;;;;;;50.50;38.50;;;;;13.96;32.86;102166.59;4978991;28;45350;-64
2022/03/27 02:23:11;;;;;;;;;45.00;36.00;;;;;13.94;33.16;102181.56;4978721;28;45178;-64
2022/03/27 02:25:37;;;;;;;;;45.00;38.25;;;;;13.91;32.85;102168.38;4978748;28;45190;-64
2022/03/27 02:28:03;;;;;;;;;52.00;40.00;;;;;13.90;32.92;102187.75;4978858;28;45193;-64
2022/03/27 02:30:29;;;;;;;;;44.00;34.00;;;;;13.87;33.05;102185.13;4979117;28;45216;-64
2022/03/27 02:32:54;;;;;;;;;46.00;38.00;;;;;13.84;33.11;102176.34;4978966;28;45305;-64
2022/03/27 02:35:20;;;;;;;;;53.25;41.50;;;;;13.84;33.32;102185.16;4993916;28;45340;-64
2022/03/27 02:37:45;;;;;;;;;47.50;37.25;;;;;13.83;33.19;102178.09;4978718;28;45337;-64
2022/03/27 02:40:11;;;;;;;;;44.75;36.25;;;;;13.81;33.42;102193.06;4977842;28;45332;-64
2022/03/27 02:42:36;;;;;;;;;45.25;36.00;;;;;13.77;33.21;102172.84;4978035;28;45306;-65
2022/03/27 02:45:02;;;;;;;;;50.00;41.50;;;;;13.73;33.35;102181.66;4970279;28;48137;-64
2022/03/27 02:47:27;;;;;;;;;49.75;38.75;;;;;13.73;33.46;102182.53;4957744;28;45353;-64
2022/03/27 02:49:53;;;;;;;;;47.75;39.25;;;;;13.71;33.47;102186.06;4959267;28;45265;-64
2022/03/27 02:52:18;;;;;;;;;45.50;37.25;;;;;13.69;33.69;102177.28;4959070;28;45384;-64
2022/03/27 02:54:44;;;;;;;;;47.75;38.25;;;;;13.67;33.72;102179.91;4958742;28;45450;-64
2022/03/27 02:57:10;;;;;;;;;39.75;30.25;;;;;13.65;33.85;102179.94;4959068;28;45265;-64
2022/03/27 02:59:35;;;;;;;;;45.00;38.00;;;;;13.62;33.59;102179.97;4959045;28;45162;-64
2022/03/27 03:02:03;;;;;;;;;49.50;37.50;;;;;13.61;33.84;102186.13;4957681;28;45474;-64
2022/03/27 03:04:29;;;;;;;;;48.00;37.50;;;;;13.59;33.54;102184.38;4958943;28;46309;-64
2022/03/27 03:06:56;;;;;;;;;47.25;38.00;;;;;13.54;33.95;102173.81;4958900;28;45314;-64
2022/03/27 03:09:21;;;;;;;;;50.25;40.25;;;;;13.55;33.76;102183.50;4958586;28;45386;-64
2022/03/27 03:11:47;;;;;;;;;49.50;38.00;;;;;13.54;33.94;102187.03;4958746;28;45335;-64
2022/03/27 03:14:12;;;;;;;;;47.50;38.50;;;;;13.52;34.05;102188.81;4958863;28;45283;-65
2022/03/27 03:16:39;;;;;;;;;53.50;40.00;;;;;13.51;34.04;102178.22;4958721;28;45482;-64
2022/03/27 03:19:05;;;;;;;;;47.50;39.00;;;;;13.49;33.88;102189.66;4967936;28;45452;-65
2022/03/27 03:21:30;;;;;;;;;47.75;39.50;;;;;13.46;34.02;102178.25;4978089;28;45471;-65
2022/03/27 03:23:56;;;;;;;;;46.50;37.25;;;;;13.46;33.94;102187.06;4977958;28;45897;-65
2022/03/27 03:26:22;;;;;;;;;45.25;36.00;;;;;13.45;34.05;102187.06;4977964;28;45339;-65
2022/03/27 03:28:48;;;;;;;;;44.25;36.50;;;;;13.44;34.21;102187.94;4978366;28;45177;-64
2022/03/27 03:31:14;;;;;;;;;45.75;36.50;;;;;13.41;34.36;102190.56;4976918;28;46053;-71
2022/03/27 03:33:40;;;;;;;;;41.00;35.25;;;;;13.40;34.20;102188.84;4977980;28;45294;-64
2022/03/27 03:36:05;;;;;;;;;45.25;36.50;;;;;13.37;34.48;102189.72;4977925;28;45346;-64
2022/03/27 03:38:31;;;;;;;;;45.25;36.50;;;;;13.36;34.49;102198.50;4978036;28;45323;-65
2022/03/27 03:40:56;;;;;;;;;43.00;34.50;;;;;13.35;34.34;102193.22;4977849;28;45501;-64
2022/03/27 03:43:22;;;;;;;;;45.25;36.25;;;;;13.32;34.21;102194.97;4978164;28;45403;-64
2022/03/27 03:45:48;;;;;;;;;45.00;35.50;;;;;13.29;34.42;102187.06;4973894;28;45342;-64
2022/03/27 03:48:14;;;;;;;;;47.00;36.25;;;;;13.30;34.46;102202.00;4958605;28;45582;-65
2022/03/27 03:50:39;;;;;;;;;48.25;38.25;;;;;13.29;34.53;102197.63;4958510;28;45601;-65
2022/03/27 03:53:06;;;;;;;;;47.50;36.50;;;;;13.24;34.48;102187.97;4956228;28;48451;-65
2022/03/27 03:55:32;;;;;;;;;50.50;38.00;;;;;13.23;34.49;102186.19;4958078;28;45436;-64
2022/03/27 03:57:57;;;;;;;;;46.25;37.00;;;;;13.20;34.52;102181.81;4957122;28;45285;-65
2022/03/27 04:00:23;;;;;;;;;44.75;36.00;;;;;13.22;34.78;102189.72;4958170;28;45149;-64
2022/03/27 04:02:49;;;;;;;;;42.50;36.25;;;;;13.20;34.71;102189.72;4958158;28;45442;-65
2022/03/27 04:05:15;;;;;;;;;47.50;36.00;;;;;13.18;34.59;102191.47;4958134;28;45502;-64
2022/03/27 04:07:40;;;;;;;;;44.75;36.50;;;;;13.17;34.73;102195.03;4957031;28;45692;-65
2022/03/27 04:10:06;;;;;;;;;47.00;37.00;;;;;13.16;35.01;102190.63;4957540;28;45263;-64
2022/03/27 04:12:32;;;;;;;;;47.00;39.00;;;;;13.15;34.95;102188.84;4958087;28;45441;-64
2022/03/27 04:14:57;;;;;;;;;38.25;33.00;;;;;13.11;34.69;102187.13;4958284;28;45308;-65
2022/03/27 04:17:22;;;;;;;;;45.00;35.50;;;;;13.13;34.88;102191.50;4958096;28;45300;-65
2022/03/27 04:19:48;;;;;;;;;45.50;36.75;;;;;13.12;35.11;102199.44;4972829;28;45315;-64
2022/03/27 04:22:13;;;;;;;;;44.75;36.00;;;;;13.10;35.17;102188.00;4977356;28;46088;-65
2022/03/27 04:24:39;;;;;;;;;44.50;35.25;;;;;13.08;35.05;102190.63;4977070;28;45371;-65
2022/03/27 04:27:04;;;;;;;;;42.00;35.25;;;;;13.07;34.87;102196.78;4977556;28;45419;-67
2022/03/27 04:29:30;;;;;;;;;44.50;35.25;;;;;13.07;34.98;102195.91;4977314;28;45242;-64
2022/03/27 04:31:55;;;;;;;;;43.50;35.00;;;;;13.05;35.28;102195.91;4977107;28;46109;-64
2022/03/27 04:34:20;;;;;;;;;46.75;36.25;;;;;13.04;35.20;102207.34;4977257;28;45227;-64
2022/03/27 04:36:46;;;;;;;;;43.25;35.50;;;;;13.01;35.06;102213.50;4976114;28;45250;-65
2022/03/27 04:39:11;;;;;;;;;40.00;32.50;;;;;12.98;35.40;102204.69;4976765;28;45424;-64
2022/03/27 04:41:37;;;;;;;;;42.75;34.50;;;;;12.98;35.24;102208.25;4977001;28;46269;-64
2022/03/27 04:44:04;;;;;;;;;42.50;36.00;;;;;12.97;35.28;102210.88;4986142;28;45229;-65
2022/03/27 04:46:29;;;;;;;;;40.25;33.00;;;;;12.91;35.32;102195.91;4957861;28;45408;-65
2022/03/27 04:48:55;;;;;;;;;44.50;36.00;;;;;12.94;35.27;102206.50;4957603;28;45335;-64
2022/03/27 04:51:21;;;;;;;;;43.25;35.00;;;;;12.90;35.42;102204.72;4957428;28;45323;-64
2022/03/27 04:53:47;;;;;;;;;35.25;31.00;;;;;12.92;35.24;102217.94;4957349;28;45463;-65
2022/03/27 04:56:12;;;;;;;;;44.00;35.00;;;;;12.90;35.33;102217.91;4957589;28;45315;-65
2022/03/27 04:58:38;;;;;;;;;40.50;33.75;;;;;12.88;35.50;102216.16;4957407;28;45316;-64
2022/03/27 05:01:03;;;;;;;;;41.25;34.25;;;;;12.87;35.67;102212.66;4972311;28;45975;-64
2022/03/27 05:03:29;;;;;;;;;39.50;34.00;;;;;12.84;35.49;102216.16;4957380;28;45292;-64
2022/03/27 05:05:54;;;;;;;;;46.00;37.50;;;;;12.84;35.52;102220.53;4960435;28;45515;-65
2022/03/27 05:08:20;;;;;;;;;39.25;32.75;;;;;12.83;35.76;102213.53;4958750;28;45465;-65
2022/03/27 05:10:46;;;;;;;;;42.25;33.25;;;;;12.80;35.61;102221.44;4959854;28;46286;-65
2022/03/27 05:13:14;;;;;;;;;40.75;33.25;;;;;12.78;35.81;102224.06;4960237;28;45294;-65
2022/03/27 05:15:40;;;;;;;;;47.00;36.75;;;;;12.78;35.54;102223.19;4960675;28;45233;-65
2022/03/27 05:18:05;;;;;;;;;40.50;32.25;;;;;12.73;35.78;102217.91;4961233;28;45486;-66
2022/03/27 05:20:31;;;;;;;;;43.75;34.50;;;;;12.73;35.93;102232.84;4978411;28;46172;-64
2022/03/27 05:22:59;;;;;;;;;34.25;30.50;;;;;12.72;35.91;102231.13;4979579;28;45362;-64
2022/03/27 05:25:25;;;;;;;;;37.75;33.00;;;;;12.71;36.03;102234.63;4979783;28;45370;-64
2022/03/27 05:27:59;;;;;;;;;39.50;34.25;;;;;12.69;36.02;102231.97;4979745;28;45158;-64
2022/03/27 05:30:27;;;;;;;;;35.75;32.75;;;;;12.67;35.90;102231.97;4979656;28;45415;-64
2022/03/27 05:32:53;;;;;;;;;46.75;35.25;;;;;12.66;36.08;102231.97;4979526;28;45217;-64
2022/03/27 05:35:20;;;;;;;;;42.75;34.00;;;;;12.64;36.02;102234.63;4979762;28;45165;-65
2022/03/27 05:37:47;;;;;;;;;35.50;31.50;;;;;12.63;36.01;102238.13;4979374;28;45612;-64
2022/03/27 05:40:17;;;;;;;;;36.00;31.75;;;;;12.62;35.92;102235.50;4979136;28;46268;-64
2022/03/27 05:42:43;;;;;;;;;34.25;30.50;;;;;12.58;36.08;102226.69;4979464;28;45374;-64
2022/03/27 05:45:09;;;;;;;;;35.75;31.00;;;;;12.60;36.11;102239.88;4981789;28;45264;-64
2022/03/27 05:47:35;;;;;;;;;42.25;35.75;;;;;12.58;36.05;102231.97;4959841;28;45487;-64
2022/03/27 05:50:01;;;;;;;;;37.75;33.50;;;;;12.57;36.11;102237.25;4959754;28;45278;-64
2022/03/27 05:52:26;;;;;;;;;38.00;32.00;;;;;12.53;36.14;102236.38;4959766;28;45405;-64
2022/03/27 05:54:52;;;;;;;;;42.50;33.25;;;;;12.52;36.30;102234.59;4959653;28;45462;-64
2022/03/27 05:57:18;;;;;;;;;39.00;33.50;;;;;12.54;36.22;102237.22;4959737;28;45473;-64
2022/03/27 05:59:45;;;;;;;;;36.25;30.25;;;;;12.53;36.41;102241.63;4958195;28;45737;-64
2022/03/27 06:02:12;;;;;;;;;33.50;30.50;;;;;12.52;36.32;102240.75;4959793;28;45331;-64
2022/03/27 06:04:37;;;;;;;;;38.75;32.25;;;;;12.52;36.22;102239.88;4958685;28;45227;-64
2022/03/27 06:07:03;;;;;;;;;37.50;31.25;;;;;12.51;36.34;102243.38;4959653;28;45558;-64
2022/03/27 06:09:28;;;;;;;;;41.25;32.00;;;;;12.51;36.50;102246.03;4959227;28;45386;-64
2022/03/27 06:11:54;;;;;;;;;38.50;32.50;;;;;12.51;36.54;102256.56;4959409;28;45225;-64
2022/03/27 06:14:19;;;;;;;;;37.75;32.00;;;;;12.49;36.69;102253.03;4959918;28;45233;-64
2022/03/27 06:16:44;;;;;;;;;33.50;30.00;;;;;12.50;36.50;102250.44;4959259;28;45457;-64
2022/03/27 06:19:10;;;;;;;;;40.75;34.75;;;;;12.48;36.63;102252.16;4968152;28;48432;-64
2022/03/27 06:21:36;;;;;;;;;40.75;33.75;;;;;12.48;36.64;102253.94;4978889;28;45400;-64
2022/03/27 06:24:02;;;;;;;;;34.25;30.50;;;;;12.47;36.59;102249.53;4978770;28;45387;-64
2022/03/27 06:26:27;;;;;;;;;38.75;31.25;;;;;12.49;36.66;102251.28;4978916;28;45394;-64
2022/03/27 06:28:52;;;;;;;;;38.50;33.00;;;;;12.50;36.80;102247.78;4978774;28;46172;-64
2022/03/27 06:31:18;;;;;;;;;38.75;34.00;;;;;12.50;36.75;102255.69;4978922;28;45326;-64
2022/03/27 06:33:43;;;;;;;;;38.25;32.50;;;;;12.52;36.72;102253.06;4979118;28;45229;-63
2022/03/27 06:36:08;;;;;;;;;41.50;33.00;;;;;12.52;36.82;102256.56;4978793;28;45624;-63
2022/03/27 06:38:34;;;;;;;;;41.75;31.00;;;;;12.52;36.78;102256.56;4978667;28;45440;-63
2022/03/27 06:40:59;;;;;;;;;35.00;31.75;;;;;12.52;36.88;102261.84;4978569;28;45330;-64
2022/03/27 06:43:24;;;;;;;;;34.25;31.75;;;;;12.54;36.81;102258.31;4978881;28;45252;-63
2022/03/27 06:45:50;;;;;;;;;39.00;34.00;;;;;12.51;36.70;102254.81;4973791;28;45480;-64
2022/03/27 06:48:16;;;;;;;;;39.00;33.00;;;;;12.54;36.78;102256.59;4957907;28;47187;-64
2022/03/27 06:50:44;;;;;;;;;37.00;32.75;;;;;12.54;37.01;102253.06;4959104;28;45256;-63
2022/03/27 06:53:12;;;;;;;;;32.00;29.25;;;;;12.58;36.93;102262.72;4959034;28;45341;-63
2022/03/27 06:55:37;;;;;;;;;38.25;32.00;;;;;12.60;36.87;102260.97;4959170;28;45534;-64
2022/03/27 06:58:03;;;;;;;;;33.75;32.00;;;;;12.60;37.08;102264.50;4959005;28;46779;-64
2022/03/27 07:03:12;;;;;;;;;43.50;35.25;;;;;12.64;37.13;102260.09;4959224;28;45272;-64
2022/03/27 07:05:41;;;;;;;;;43.75;34.50;;;;;12.67;37.14;102268.03;4957587;28;45568;-64
2022/03/27 07:08:09;;;;;;;;;43.00;32.25;;;;;12.68;37.05;102259.25;4958826;28;45363;-64
2022/03/27 07:10:36;;;;;;;;;38.75;33.00;;;;;12.67;37.28;102255.72;4957307;28;45334;-64
2022/03/27 07:13:03;;;;;;;;;33.25;31.50;;;;;12.71;37.21;102259.22;4959104;28;45313;-64
2022/03/27 07:15:28;;;;;;;;;35.25;31.25;;;;;12.74;37.13;102259.25;4958801;28;45324;-65
2022/03/27 07:17:54;;;;;;;;;45.00;35.00;;;;;12.76;37.13;102269.81;4958554;28;45298;-65
2022/03/27 07:20:26;;;;;;;;;41.00;35.50;;;;;12.78;37.22;102265.38;4977920;28;45433;-64
2022/03/27 07:22:53;;;;;;;;;41.50;32.25;;;;;12.81;37.50;102263.63;4978076;28;45365;-64
2022/03/27 07:25:23;;;;;;;;;43.25;34.50;;;;;12.83;37.25;102268.94;4970206;28;45505;-65
2022/03/27 07:27:49;;;;;;;;;39.75;32.50;;;;;12.85;37.09;102269.78;4971385;28;45743;-64
2022/03/27 07:30:15;;;;;;;;;39.00;32.25;;;;;12.88;37.35;102267.19;4978190;28;45215;-64
2022/03/27 07:32:40;;;;;;;;;34.50;31.25;;;;;12.88;37.39;102263.63;4978258;28;45393;-64
2022/03/27 07:35:10;;;;;;;;;38.75;31.25;;;;;12.95;37.36;102270.69;4978145;28;45514;-64
2022/03/27 07:37:36;;;;;;;;;46.00;34.50;;;;;12.93;37.44;102265.41;4977931;28;47132;-64
2022/03/27 07:40:04;;;;;;;;;41.00;33.25;;;;;13.00;37.66;102272.47;4977739;28;45584;-64
2022/03/27 07:42:31;;;;;;;;;41.75;35.25;;;;;13.05;37.51;102276.84;4978149;28;45341;-64
2022/03/27 07:44:57;;;;;;;;;39.00;30.50;;;;;13.08;37.27;102272.47;4980696;28;45511;-65
2022/03/27 07:47:22;;;;;;;;;37.25;33.25;;;;;13.12;37.44;102281.25;4957174;28;48319;-64
2022/03/27 07:49:47;;;;;;;;;38.75;33.00;;;;;13.16;37.51;102277.72;4958374;28;45334;-64
2022/03/27 07:52:13;;;;;;;;;40.25;33.50;;;;;13.19;37.61;102275.06;4958569;28;45321;-65
2022/03/27 07:54:39;;;;;;;;;39.25;32.75;;;;;13.24;37.25;102275.06;4958159;28;45293;-65
2022/03/27 07:57:04;;;;;;;;;42.00;32.75;;;;;13.24;37.44;102277.72;4958466;28;45363;-65
2022/03/27 07:59:30;;;;;;;;;36.25;32.00;;;;;13.31;37.40;102275.06;4958279;28;45224;-65
2022/03/27 08:01:55;;;;;;;;;34.25;30.00;;;;;13.37;37.34;102279.50;4958353;28;45260;-65
2022/03/27 08:04:21;;;;;;;;;41.50;33.00;;;;;13.39;37.36;102277.72;4958371;28;45271;-65
2022/03/27 08:06:47;;;;;;;;;41.00;34.25;;;;;13.45;37.48;102272.44;4958079;28;46148;-65
2022/03/27 08:09:13;;;;;;;;;42.50;33.25;;;;;13.52;37.47;102289.16;4957918;28;45189;-65
2022/03/27 08:11:41;;;;;;;;;40.25;32.50;;;;;13.56;37.45;102282.09;4957969;28;45252;-65
2022/03/27 08:14:08;;;;;;;;;40.25;35.25;;;;;13.62;37.51;102292.63;4958067;28;45311;-65
2022/03/27 08:16:34;;;;;;;;;37.00;32.00;;;;;13.65;37.58;102288.22;4957884;28;45368;-64
2022/03/27 08:18:59;;;;;;;;;37.25;33.25;;;;;13.73;37.54;102290.00;4966376;28;45410;-65
2022/03/27 08:21:25;;;;;;;;;43.25;35.00;;;;;13.77;37.71;102284.69;4977415;28;45709;-65
2022/03/27 08:23:50;;;;;;;;;35.25;30.75;;;;;13.82;37.34;102276.75;4977280;28;45434;-65
2022/03/27 08:29:03;;;;;;;;;41.00;32.25;;;;;13.93;37.48;102279.34;4977420;28;45418;-65
2022/03/27 08:31:29;;;;;;;;;44.50;34.75;;;;;14.01;37.28;102277.53;4977334;28;45321;-64
2022/03/27 08:33:55;;;;;;;;;39.75;34.50;;;;;14.08;37.60;102281.06;4977251;28;45255;-65
2022/03/27 08:36:21;;;;;;;;;35.00;32.50;;;;;14.14;37.20;102284.53;4975760;28;45423;-65
2022/03/27 08:38:46;;;;;;;;;37.75;32.50;;;;;14.22;37.77;102283.63;4978157;28;45321;-64
2022/03/27 08:41:15;;;;;;;;;29.75;27.00;;;;;14.28;37.40;102276.53;4980117;28;45378;-65
2022/03/27 08:43:43;;;;;;;;;41.50;36.00;;;;;14.39;37.32;102283.53;4996605;28;45440;-64
2022/03/27 08:46:09;;;;;;;;;36.50;31.25;;;;;14.46;37.75;102279.97;4970993;28;45207;-64
2022/03/27 08:48:37;;;;;;;;;35.50;31.75;;;;;14.54;37.19;102278.19;4960717;28;45231;-65
2022/03/27 08:51:20;;;;;;;;;39.25;33.00;;;;;14.62;37.33;102283.41;4960710;28;45335;-65
2022/03/27 08:53:59;;;;;;;;;35.25;31.00;;;;;14.69;37.19;102277.22;4960456;28;45447;-64
2022/03/27 08:56:25;;;;;;;;;33.75;27.75;;;;;14.82;37.69;102278.00;4960546;28;45434;-65
2022/03/27 08:58:53;;;;;;;;;34.25;32.25;;;;;14.91;37.05;102283.22;4960199;28;45312;-65
2022/03/27 09:01:19;;;;;;;;;44.50;34.50;;;;;14.99;36.96;102282.28;4959233;28;45391;-65
2022/03/27 09:03:45;;;;;;;;;46.00;37.75;;;;;15.10;37.06;102283.94;4960347;28;45514;-65
2022/03/27 09:06:11;;;;;;;;;37.25;31.25;;;;;15.21;37.08;102283.88;4960460;28;46109;-65
2022/03/27 09:08:36;;;;;;;;;41.75;33.25;;;;;15.32;37.01;102294.38;4959943;28;45449;-65
2022/03/27 09:11:03;;;;;;;;;45.50;35.50;;;;;15.43;37.28;102291.59;4960072;28;45213;-65
2022/03/27 09:13:30;;;;;;;;;40.25;34.25;;;;;15.54;37.25;102295.00;4960279;28;45477;-66
2022/03/27 09:16:05;;;;;;;;;41.00;36.00;;;;;15.68;37.05;102292.22;4960372;28;45650;-65
2022/03/27 09:18:48;;;;;;;;;41.75;33.50;;;;;15.83;36.86;102291.19;4963260;28;45268;-64
2022/03/27 09:21:15;;;;;;;;;40.75;33.00;;;;;15.96;37.05;102289.31;4979627;28;45460;-65
2022/03/27 09:23:41;;;;;;;;;35.75;33.25;;;;;16.11;37.05;102293.50;4979487;28;45231;-65
2022/03/27 09:26:09;;;;;;;;;33.75;29.75;;;;;16.25;36.77;102299.53;4977927;28;47040;-65
2022/03/27 09:28:40;;;;;;;;;34.00;27.75;;;;;16.40;36.86;102289.59;4979830;28;45302;-65
2022/03/27 09:31:21;;;;;;;;;38.00;32.50;;;;;16.56;36.92;102292.91;4979711;28;45243;-63
2022/03/27 09:33:47;;;;;;;;;30.50;26.00;;;;;16.70;36.75;102298.91;4979429;28;45314;-64
2022/03/27 09:36:19;;;;;;;;;32.50;32.00;;;;;16.85;36.60;102288.94;4978123;28;48111;-64
2022/03/27 09:39:07;;;;;;;;;34.50;29.00;;;;;17.04;36.40;102297.50;4979134;28;45237;-63
2022/03/27 09:41:38;;;;;;;;;38.00;30.50;;;;;17.17;36.61;102291.09;4979638;28;45318;-64
2022/03/27 09:44:07;;;;;;;;;33.75;28.00;;;;;17.31;36.29;102292.66;4989163;28;45434;-63
2022/03/27 09:46:59;;;;;;;;;37.75;31.25;;;;;17.48;36.26;102294.97;4959989;28;46593;-63
2022/03/27 09:49:46;;;;;;;;;26.25;25.50;;;;;17.65;36.40;102297.34;4959291;28;45335;-63
2022/03/27 09:52:18;;;;;;;;;35.00;29.25;;;;;17.82;36.37;102289.91;4959720;28;45235;-63
2022/03/27 09:54:44;;;;;;;;;28.25;24.75;;;;;18.01;36.39;102290.44;4959460;28;45481;-64
2022/03/27 09:57:19;;;;;;;;;33.50;31.00;;;;;18.24;36.15;102280.19;4958271;28;48034;-64
2022/03/27 09:59:46;;;;;;;;;31.75;29.00;;;;;18.48;36.53;102284.97;4959595;28;45564;-65
2022/03/27 10:02:30;;;;;;;;;36.50;30.50;;;;;18.79;36.25;102286.91;4959565;28;45346;-64
2022/03/27 10:05:06;;;;;;;;;29.75;27.50;;;;;19.05;36.16;102280.09;4959625;28;45418;-64
2022/03/27 10:07:47;;;;;;;;;35.75;31.75;;;;;19.25;36.23;102276.91;4965430;28;46622;-65
2022/03/27 10:10:16;;;;;;;;;35.25;29.25;;;;;19.47;35.76;102279.00;4978723;28;45295;-64
2022/03/27 10:12:44;;;;;;;;;35.00;30.75;;;;;19.62;35.93;102272.38;4979244;28;45438;-63
2022/03/27 10:15:12;;;;;;;;;39.00;33.75;;;;;19.76;35.87;102275.53;4978935;28;45589;-64
2022/03/27 10:17:39;;;;;;;;;34.75;32.50;;;;;19.90;35.83;102275.16;4970994;28;45260;-64
2022/03/27 10:20:13;;;;;;;;;38.25;31.00;;;;;20.04;35.60;102269.41;4976787;28;45241;-64
2022/03/27 10:22:47;;;;;;;;;32.75;27.25;;;;;20.19;35.15;102264.53;4979011;28;45284;-64
2022/03/27 10:25:16;;;;;;;;;29.75;26.25;;;;;20.30;34.97;102262.41;4978688;28;45278;-64
2022/03/27 10:27:43;;;;;;;;;35.50;31.75;;;;;20.43;35.17;102262.91;4977545;28;47544;-64
2022/03/27 10:30:11;;;;;;;;;32.00;29.75;;;;;20.54;35.03;102255.44;4978969;28;45336;-63
2022/03/27 10:32:38;;;;;;;;;35.50;31.25;;;;;20.68;35.21;102254.09;4978747;28;45314;-64
2022/03/27 10:35:17;;;;;;;;;28.00;25.75;;;;;20.81;34.62;102255.47;4978964;28;45324;-64
2022/03/27 10:37:44;;;;;;;;;30.50;28.25;;;;;20.95;34.46;102244.31;4978194;28;46366;-64
2022/03/27 10:40:21;;;;;;;;;37.50;31.50;;;;;21.10;35.00;102257.13;4978557;28;45335;-66
2022/03/27 10:42:54;;;;;;;;;39.25;33.25;;;;;21.24;34.76;102240.66;4978627;28;45250;-66
2022/03/27 10:45:21;;;;;;;;;35.50;29.25;;;;;21.40;34.58;102240.09;4978804;28;45474;-65
2022/03/27 10:48:15;;;;;;;;;34.75;30.00;;;;;21.61;34.42;102226.88;4958964;28;46031;-65
2022/03/27 10:50:52;;;;;;;;;31.75;30.25;;;;;21.83;34.77;102227.81;4958995;28;45182;-65
2022/03/27 10:53:21;;;;;;;;;37.75;31.50;;;;;22.13;34.51;102227.56;4958832;28;45265;-65
2022/03/27 10:55:50;;;;;;;;;29.50;26.50;;;;;22.46;34.55;102227.16;4958814;28;45462;-66
2022/03/27 10:58:25;;;;;;;;;32.25;28.75;;;;;22.84;34.54;102227.38;4958990;28;45287;-65
2022/03/27 11:00:50;;;;;;;;;30.25;27.75;;;;;23.22;34.88;102224.00;4958741;28;45260;-66
2022/03/27 11:03:44;;;;;;;;;31.75;28.50;;;;;23.70;34.53;102219.16;4957840;28;45295;-67
2022/03/27 11:06:26;;;;;;;;;31.75;27.25;;;;;24.18;34.45;102223.16;4968082;28;45630;-64
2022/03/27 11:08:54;;;;;;;;;35.25;30.50;;;;;24.64;34.13;102216.44;4978015;28;45260;-63
2022/03/27 11:11:50;;;;;;;;;36.75;29.50;;;;;25.26;34.54;102216.88;4978282;28;45362;-66
2022/03/27 11:14:23;;;;;;;;;32.50;29.50;;;;;25.76;33.88;102214.22;4978320;28;45389;-65
2022/03/27 11:17:04;;;;;;;;;36.00;30.00;;;;;26.28;33.65;102214.00;4977058;28;45253;-65
2022/03/27 11:19:47;;;;;;;;;31.50;29.25;;;;;26.80;33.83;102213.75;4971228;28;46303;-65